• Join FlightAware (Why Join?)
  • Login
  • US Flag 
09:42PM EST


 

Airport Tracker/Info


-or-


 

Live Flight TrackerFlight Track Log ✈ N682RW ✈ 30-Oct-2013 ✈ CYVR - CYYC

Flight Track Log - Related Links

Times and Time Zones

All times are in EDT time to prevent confusion due to time zone crossing. See the N682RW flight status page for this flight to view local times or setup timezone preferences in your user account.

Time Position Orientation Groundspeed Altitude Reporting Facility
EDT Latitude Longitude Course Direction KTS MPH feet Rate Location/Type
03:08AM 49.1500 -123.0667 97° East 220 253 4,300  Level Vancouver Center
03:09AM 49.1333 -122.9500 102° East 280 322 7,100 3,000 Climbing Vancouver Center
03:10AM 49.1167 -122.8000 100° East 320 368 10,400 2,820 Climbing Vancouver Center
03:11AM 49.1154 -122.0480 97° East  Level FlightAware Approximate
03:11AM 49.0833 -122.6833 114° Southeast 360 414 12,800  Level Vancouver Center
03:12AM 49.1028 -121.8861 97° East  Level FlightAware Approximate
03:12AM 49.0667 -122.5000 98° East 370 426 15,700  Level Vancouver Center
03:13AM 49.0814 -121.7267 97° East  Level FlightAware Approximate
03:13AM 49.0667 -122.3500 90° East 400 460 17,600  Level Vancouver Center
03:14AM 49.0679 -121.5650 97° East  Level FlightAware Approximate
03:14AM 49.0667 -122.1500 90° East 440 506 19,500  Level Vancouver Center
03:15AM 49.0500 -121.9667 98° East 460 529 21,600 2,100 Climbing Vancouver Center
03:16AM 49.0667 -121.7667 83° East 470 541 23,800 1,800 Climbing Vancouver Center
03:17AM 49.0833 -121.5333 84° East 480 552 25,300 1,440 Climbing Vancouver Center
03:18AM 49.0833 -121.3333 90° East 500 575 26,700 1,440 Climbing Vancouver Center
03:19AM 49.0833 -121.1000 90° East 520 598 28,200 1,500 Climbing Vancouver Center
03:20AM 49.0833 -120.9000 90° East 530 610 29,700 1,500 Climbing Vancouver Center
03:21AM 49.1000 -120.6333 84° East 540 621 31,200 1,260 Climbing Vancouver Center
03:22AM 49.1333 -120.4500 74° East 530 610 32,300 1,260 Climbing Vancouver Center
03:23AM 49.2000 -120.2500 63° Northeast 500 575 33,800 1,200 Climbing Vancouver Center
03:24AM 49.2667 -120.0667 61° Northeast 500 575 34,800 600 Climbing Vancouver Center
03:25AM 49.3000 -119.8500 77° East 490 564 35,000 60 Climbing Vancouver Center
03:26AM 49.3667 -119.6667 61° Northeast 500 575 35,000  Level Vancouver Center
03:27AM 49.4167 -119.4833 67° East 500 575 35,000  Level Vancouver Center
03:28AM 49.4833 -119.2833 63° Northeast 500 575 35,000  Level Vancouver Center
03:29AM 49.5333 -119.0833 69° East 500 575 35,000  Level Vancouver Center
03:30AM 49.6000 -118.9000 61° Northeast 500 575 35,000  Level Vancouver Center
03:31AM 49.6333 -118.7000 75° East 500 575 35,000  Level Vancouver Center
03:33AM 49.7333 -118.3667 65° Northeast 500 575 35,000  Level Edmonton Center
03:34AM 49.8000 -118.1667 63° Northeast 500 575 35,000  Level Edmonton Center
03:35AM 49.8500 -117.9667 69° East 500 575 35,000  Level Edmonton Center
03:36AM 49.9167 -117.7500 64° Northeast 490 564 35,000  Level Edmonton Center
03:37AM 49.9500 -117.5833 73° East 490 564 35,000  Level Edmonton Center
03:38AM 50.0000 -117.3833 69° East 490 564 35,000  Level Edmonton Center
03:39AM 50.0667 -117.1833 62° Northeast 490 564 35,000  Level Edmonton Center
03:40AM 50.1167 -116.9667 70° East 490 564 35,000  Level Edmonton Center
03:41AM 50.1500 -116.7833 74° East 490 564 35,000  Level Edmonton Center
03:42AM 50.2167 -116.5833 62° Northeast 490 564 35,000  Level Edmonton Center
03:43AM 50.2667 -116.3833 69° East 490 564 35,000 -1,260 Level Edmonton Center
03:44AM 50.3000 -116.1833 75° East 490 564 32,500 -3,000 Descending Edmonton Center
03:45AM 50.4000 -116.0167 47° Northeast 470 541 29,000 -2,580 Descending Edmonton Center
03:46AM 50.4833 -115.8500 52° Northeast 460 529 27,400 -2,160 Descending Edmonton Center
03:47AM 50.5500 -115.7167 52° Northeast 440 506 24,700 -2,520 Descending Edmonton Center
03:48AM 50.6167 -115.5667 55° Northeast 420 483 22,400 -2,040 Descending Edmonton Center
03:49AM 50.6833 -115.4333 52° Northeast 410 472 20,700 -1,920 Descending Edmonton Center
03:50AM 50.7500 -115.2833 55° Northeast 390 449 18,600 -2,400 Descending Edmonton Center
03:51AM 50.8167 -115.1667 48° Northeast 380 437 16,000 -1,800 Descending Edmonton Center
03:52AM 50.8833 -115.0167 55° Northeast 380 437 15,000 -540 Descending Edmonton Center
03:53AM 50.9500 -114.9000 48° Northeast 350 403 15,000  Level Edmonton Center
03:54AM 51.0000 -114.8000 52° Northeast 310 357 15,000 -480 Level Edmonton Center
03:55AM 51.0500 -114.6667 59° Northeast 310 357 14,100 -1,260 Descending Edmonton Center
03:56AM 51.0833 -114.5833 57° Northeast 310 357 12,500 -1,740 Descending Edmonton Center
03:57AM 51.1500 -114.4500 51° Northeast 290 334 10,700 -1,620 Descending Edmonton Center
03:58AM 51.1833 -114.3500 62° Northeast 260 299 9,300 -1,320 Descending Edmonton Center
03:59AM 51.2167 -114.2833 51° Northeast 210 242 8,100 -1,320 Descending Edmonton Center
04:00AM 51.2333 -114.2000 72° East 200 230 6,700 -1,080 Descending Edmonton Center
04:01AM 51.2500 -114.1000 75° East 210 242 6,000 -420 Descending Edmonton Center
04:02AM 51.2167 -114.0333 129° Southeast 180 207 5,900 -480 Descending Edmonton Center
04:03AM 51.1833 -114.0500 197° South 160 184 5,100 -840 Descending Edmonton Center
04:04AM 51.1333 -114.0500 180° South 140 161 4,300 -780 Descending Edmonton Center
04:05AM 51.1000 -114.0333 163° South 140 161 3,600 -720 Descending Edmonton Center
04:07AM 51.1000 -114.0167 129° Southeast  Level FlightAware Approximate